sensor_id;sensor_type;location;lat;lon;timestamp;P1;durP1;ratioP1;P2;durP2;ratioP2
63926;SDS011;50103;47.960;21.712;2023-01-08T06:03:23;73.40;;;38.60;;
63926;SDS011;50103;47.960;21.712;2023-01-08T06:05:49;79.80;;;39.80;;
63926;SDS011;50103;47.960;21.712;2023-01-08T06:08:14;79.60;;;38.80;;
63926;SDS011;50103;47.960;21.712;2023-01-08T06:10:40;78.40;;;39.40;;
63926;SDS011;50103;47.960;21.712;2023-01-08T06:13:08;83.90;;;40.80;;
63926;SDS011;50103;47.960;21.712;2023-01-08T06:15:36;77.20;;;40.30;;
63926;SDS011;50103;47.960;21.712;2023-01-08T06:18:04;96.00;;;41.70;;
63926;SDS011;50103;47.960;21.712;2023-01-08T06:20:29;87.80;;;42.90;;
63926;SDS011;50103;47.960;21.712;2023-01-08T06:22:55;86.50;;;43.10;;
63926;SDS011;50103;47.960;21.712;2023-01-08T06:25:21;86.40;;;41.80;;
63926;SDS011;50103;47.960;21.712;2023-01-08T06:27:50;90.10;;;44.00;;
63926;SDS011;50103;47.960;21.712;2023-01-08T06:30:16;89.60;;;42.80;;
63926;SDS011;50103;47.960;21.712;2023-01-08T06:32:42;85.90;;;44.10;;
63926;SDS011;50103;47.960;21.712;2023-01-08T06:35:07;88.60;;;43.20;;
63926;SDS011;50103;47.960;21.712;2023-01-08T06:37:33;94.80;;;45.90;;
63926;SDS011;50103;47.960;21.712;2023-01-08T06:39:59;90.90;;;45.30;;
63926;SDS011;50103;47.960;21.712;2023-01-08T06:42:24;92.50;;;46.50;;
63926;SDS011;50103;47.960;21.712;2023-01-08T06:44:50;107.40;;;50.60;;
63926;SDS011;50103;47.960;21.712;2023-01-08T06:47:15;105.20;;;48.30;;
63926;SDS011;50103;47.960;21.712;2023-01-08T06:49:41;113.50;;;49.80;;
63926;SDS011;50103;47.960;21.712;2023-01-08T06:52:06;108.20;;;49.30;;
63926;SDS011;50103;47.960;21.712;2023-01-08T06:54:32;109.80;;;51.90;;
63926;SDS011;50103;47.960;21.712;2023-01-08T06:56:57;107.30;;;50.90;;
63926;SDS011;50103;47.960;21.712;2023-01-08T06:59:23;106.10;;;52.40;;
63926;SDS011;50103;47.960;21.712;2023-01-08T07:01:48;107.60;;;52.60;;
63926;SDS011;50103;47.960;21.712;2023-01-08T07:04:15;111.00;;;52.30;;
63926;SDS011;50103;47.960;21.712;2023-01-08T07:06:41;108.20;;;53.00;;
63926;SDS011;50103;47.960;21.712;2023-01-08T07:09:06;105.00;;;54.40;;
63926;SDS011;50103;47.960;21.712;2023-01-08T07:11:33;107.30;;;53.60;;
63926;SDS011;50103;47.960;21.712;2023-01-08T07:13:58;111.40;;;56.10;;
63926;SDS011;50103;47.960;21.712;2023-01-08T07:16:24;115.10;;;54.70;;
63926;SDS011;50103;47.960;21.712;2023-01-08T07:18:49;101.70;;;52.10;;
63926;SDS011;50103;47.960;21.712;2023-01-08T07:21:15;94.20;;;47.00;;
63926;SDS011;50103;47.960;21.712;2023-01-08T07:23:40;104.80;;;52.10;;
63926;SDS011;50103;47.960;21.712;2023-01-08T07:26:06;106.80;;;54.20;;
63926;SDS011;50103;47.960;21.712;2023-01-08T07:28:32;110.30;;;54.50;;
63926;SDS011;50103;47.960;21.712;2023-01-08T07:31:01;108.30;;;57.00;;
63926;SDS011;50103;47.960;21.712;2023-01-08T07:33:28;110.10;;;57.20;;
63926;SDS011;50103;47.960;21.712;2023-01-08T07:35:54;112.40;;;58.30;;
63926;SDS011;50103;47.960;21.712;2023-01-08T07:38:20;117.20;;;60.40;;
63926;SDS011;50103;47.960;21.712;2023-01-08T07:40:46;111.40;;;57.10;;
63926;SDS011;50103;47.960;21.712;2023-01-08T07:43:12;114.50;;;59.70;;
63926;SDS011;50103;47.960;21.712;2023-01-08T07:45:38;115.80;;;60.10;;
63926;SDS011;50103;47.960;21.712;2023-01-08T07:48:03;127.10;;;62.00;;
63926;SDS011;50103;47.960;21.712;2023-01-08T07:52:56;114.50;;;57.10;;
63926;SDS011;50103;47.960;21.712;2023-01-08T07:55:23;111.70;;;59.80;;
63926;SDS011;50103;47.960;21.712;2023-01-08T07:57:48;108.10;;;56.20;;
63926;SDS011;50103;47.960;21.712;2023-01-08T08:00:14;113.00;;;58.50;;
63926;SDS011;50103;47.960;21.712;2023-01-08T08:02:39;115.20;;;57.60;;
63926;SDS011;50103;47.960;21.712;2023-01-08T08:05:05;113.90;;;56.70;;
63926;SDS011;50103;47.960;21.712;2023-01-08T08:07:31;112.80;;;59.30;;
63926;SDS011;50103;47.960;21.712;2023-01-08T08:09:56;105.50;;;53.80;;
63926;SDS011;50103;47.960;21.712;2023-01-08T08:12:21;117.30;;;60.30;;
63926;SDS011;50103;47.960;21.712;2023-01-08T08:14:47;119.80;;;59.50;;
63926;SDS011;50103;47.960;21.712;2023-01-08T08:17:12;118.70;;;60.60;;
63926;SDS011;50103;47.960;21.712;2023-01-08T08:19:38;115.80;;;61.50;;
63926;SDS011;50103;47.960;21.712;2023-01-08T08:22:05;120.60;;;59.90;;
63926;SDS011;50103;47.960;21.712;2023-01-08T08:24:31;118.20;;;60.20;;
63926;SDS011;50103;47.960;21.712;2023-01-08T08:26:56;113.10;;;56.60;;
63926;SDS011;50103;47.960;21.712;2023-01-08T08:29:21;111.10;;;54.00;;
63926;SDS011;50103;47.960;21.712;2023-01-08T08:31:47;114.00;;;60.30;;
63926;SDS011;50103;47.960;21.712;2023-01-08T08:34:12;123.80;;;62.20;;
63926;SDS011;50103;47.960;21.712;2023-01-08T08:36:38;121.20;;;62.90;;
63926;SDS011;50103;47.960;21.712;2023-01-08T08:39:03;139.10;;;65.90;;
63926;SDS011;50103;47.960;21.712;2023-01-08T08:41:29;122.30;;;64.80;;
63926;SDS011;50103;47.960;21.712;2023-01-08T08:43:54;123.60;;;61.80;;
63926;SDS011;50103;47.960;21.712;2023-01-08T08:46:20;123.40;;;66.20;;
63926;SDS011;50103;47.960;21.712;2023-01-08T08:48:46;120.70;;;63.90;;
63926;SDS011;50103;47.960;21.712;2023-01-08T08:51:12;121.70;;;62.00;;
63926;SDS011;50103;47.960;21.712;2023-01-08T08:53:38;123.90;;;61.90;;
63926;SDS011;50103;47.960;21.712;2023-01-08T08:56:03;125.50;;;63.10;;
63926;SDS011;50103;47.960;21.712;2023-01-08T08:58:29;131.90;;;68.20;;
63926;SDS011;50103;47.960;21.712;2023-01-08T09:00:59;128.80;;;64.50;;
63926;SDS011;50103;47.960;21.712;2023-01-08T09:03:26;129.70;;;64.60;;
63926;SDS011;50103;47.960;21.712;2023-01-08T09:05:52;128.90;;;66.70;;
63926;SDS011;50103;47.960;21.712;2023-01-08T09:08:17;135.60;;;68.70;;
63926;SDS011;50103;47.960;21.712;2023-01-08T09:10:43;124.10;;;64.30;;
63926;SDS011;50103;47.960;21.712;2023-01-08T09:13:08;132.70;;;67.00;;
63926;SDS011;50103;47.960;21.712;2023-01-08T09:15:34;134.20;;;69.80;;
63926;SDS011;50103;47.960;21.712;2023-01-08T09:18:01;133.80;;;67.50;;
63926;SDS011;50103;47.960;21.712;2023-01-08T09:20:26;139.20;;;74.00;;
63926;SDS011;50103;47.960;21.712;2023-01-08T09:22:52;141.70;;;72.90;;
63926;SDS011;50103;47.960;21.712;2023-01-08T09:25:18;144.30;;;72.50;;
63926;SDS011;50103;47.960;21.712;2023-01-08T09:27:44;139.20;;;73.90;;
63926;SDS011;50103;47.960;21.712;2023-01-08T09:30:10;139.50;;;76.30;;
63926;SDS011;50103;47.960;21.712;2023-01-08T09:32:36;136.00;;;78.80;;
63926;SDS011;50103;47.960;21.712;2023-01-08T09:35:02;154.20;;;83.50;;
63926;SDS011;50103;47.960;21.712;2023-01-08T09:37:29;147.40;;;79.00;;
63926;SDS011;50103;47.960;21.712;2023-01-08T09:39:54;148.40;;;79.50;;
63926;SDS011;50103;47.960;21.712;2023-01-08T09:42:21;139.40;;;80.70;;
63926;SDS011;50103;47.960;21.712;2023-01-08T09:44:51;145.50;;;80.00;;
63926;SDS011;50103;47.960;21.712;2023-01-08T09:47:30;139.80;;;77.50;;
63926;SDS011;50103;47.960;21.712;2023-01-08T09:50:02;142.00;;;78.60;;
63926;SDS011;50103;47.960;21.712;2023-01-08T09:52:32;147.80;;;80.40;;
63926;SDS011;50103;47.960;21.712;2023-01-08T09:55:00;138.20;;;78.70;;
63926;SDS011;50103;47.960;21.712;2023-01-08T09:57:26;131.60;;;80.00;;
63926;SDS011;50103;47.960;21.712;2023-01-08T09:59:53;138.40;;;77.20;;
63926;SDS011;50103;47.960;21.712;2023-01-08T10:02:20;140.00;;;82.50;;
63926;SDS011;50103;47.960;21.712;2023-01-08T10:04:57;129.90;;;80.50;;
63926;SDS011;50103;47.960;21.712;2023-01-08T10:07:24;131.30;;;77.00;;
63926;SDS011;50103;47.960;21.712;2023-01-08T10:09:52;131.70;;;75.40;;
63926;SDS011;50103;47.960;21.712;2023-01-08T10:12:29;129.50;;;71.80;;
63926;SDS011;50103;47.960;21.712;2023-01-08T10:15:06;126.50;;;69.80;;
63926;SDS011;50103;47.960;21.712;2023-01-08T10:17:38;129.60;;;75.40;;
63926;SDS011;50103;47.960;21.712;2023-01-08T10:20:11;128.30;;;74.10;;
63926;SDS011;50103;47.960;21.712;2023-01-08T10:22:38;128.30;;;75.50;;
63926;SDS011;50103;47.960;21.712;2023-01-08T10:25:15;120.80;;;74.60;;
63926;SDS011;50103;47.960;21.712;2023-01-08T10:33:00;126.10;;;72.90;;
63926;SDS011;50103;47.960;21.712;2023-01-08T10:35:31;122.00;;;71.90;;
63926;SDS011;50103;47.960;21.712;2023-01-08T10:38:00;126.60;;;76.40;;
63926;SDS011;50103;47.960;21.712;2023-01-08T10:40:34;123.90;;;73.30;;
63926;SDS011;50103;47.960;21.712;2023-01-08T10:43:08;129.60;;;75.70;;
63926;SDS011;50103;47.960;21.712;2023-01-08T10:45:39;126.70;;;74.90;;
63926;SDS011;50103;47.960;21.712;2023-01-08T10:48:06;132.40;;;75.70;;
63926;SDS011;50103;47.960;21.712;2023-01-08T10:50:37;131.60;;;76.70;;
63926;SDS011;50103;47.960;21.712;2023-01-08T10:53:04;174.20;;;100.70;;
63926;SDS011;50103;47.960;21.712;2023-01-08T10:55:45;127.60;;;77.60;;
63926;SDS011;50103;47.960;21.712;2023-01-08T10:58:26;132.50;;;76.90;;
63926;SDS011;50103;47.960;21.712;2023-01-08T11:00:53;130.80;;;79.80;;
63926;SDS011;50103;47.960;21.712;2023-01-08T11:05:50;135.10;;;77.50;;
63926;SDS011;50103;47.960;21.712;2023-01-08T11:08:16;133.80;;;80.50;;
63926;SDS011;50103;47.960;21.712;2023-01-08T11:10:55;128.40;;;73.60;;
63926;SDS011;50103;47.960;21.712;2023-01-08T11:13:23;125.40;;;77.10;;
63926;SDS011;50103;47.960;21.712;2023-01-08T11:18:42;119.40;;;73.20;;
63926;SDS011;50103;47.960;21.712;2023-01-08T11:21:23;120.10;;;72.00;;
63926;SDS011;50103;47.960;21.712;2023-01-08T11:24:39;114.70;;;71.30;;
63926;SDS011;50103;47.960;21.712;2023-01-08T11:27:08;114.20;;;69.70;;
63926;SDS011;50103;47.960;21.712;2023-01-08T11:32:39;100.00;;;64.90;;
63926;SDS011;50103;47.960;21.712;2023-01-08T11:37:58;99.80;;;64.30;;
63926;SDS011;50103;47.960;21.712;2023-01-08T11:46:37;81.90;;;55.80;;
63926;SDS011;50103;47.960;21.712;2023-01-08T11:49:23;81.00;;;51.80;;
63926;SDS011;50103;47.960;21.712;2023-01-08T11:52:05;74.80;;;49.20;;
63926;SDS011;50103;47.960;21.712;2023-01-08T12:00:41;71.30;;;47.50;;
63926;SDS011;50103;47.960;21.712;2023-01-08T12:03:50;72.60;;;47.80;;
63926;SDS011;50103;47.960;21.712;2023-01-08T12:09:09;62.20;;;42.30;;
63926;SDS011;50103;47.960;21.712;2023-01-08T12:14:47;61.10;;;41.50;;
63926;SDS011;50103;47.960;21.712;2023-01-08T12:22:59;57.20;;;39.00;;
63926;SDS011;50103;47.960;21.712;2023-01-08T12:34:32;56.60;;;36.10;;
63926;SDS011;50103;47.960;21.712;2023-01-08T12:37:07;54.60;;;36.20;;
63926;SDS011;50103;47.960;21.712;2023-01-08T12:39:47;55.70;;;36.60;;
63926;SDS011;50103;47.960;21.712;2023-01-08T12:42:18;57.30;;;37.60;;
63926;SDS011;50103;47.960;21.712;2023-01-08T12:44:50;58.00;;;37.20;;
63926;SDS011;50103;47.960;21.712;2023-01-08T12:47:19;54.10;;;37.70;;
63926;SDS011;50103;47.960;21.712;2023-01-08T12:53:11;60.80;;;40.40;;
63926;SDS011;50103;47.960;21.712;2023-01-08T12:55:45;57.60;;;38.10;;
63926;SDS011;50103;47.960;21.712;2023-01-08T13:01:15;60.90;;;40.30;;
63926;SDS011;50103;47.960;21.712;2023-01-08T13:03:45;58.80;;;38.90;;
63926;SDS011;50103;47.960;21.712;2023-01-08T13:06:12;57.60;;;38.00;;
63926;SDS011;50103;47.960;21.712;2023-01-08T13:08:43;52.50;;;35.10;;
63926;SDS011;50103;47.960;21.712;2023-01-08T13:11:21;49.30;;;34.20;;
63926;SDS011;50103;47.960;21.712;2023-01-08T13:13:56;55.60;;;35.20;;
63926;SDS011;50103;47.960;21.712;2023-01-08T13:16:24;54.10;;;37.40;;
63926;SDS011;50103;47.960;21.712;2023-01-08T13:19:00;57.80;;;38.50;;
63926;SDS011;50103;47.960;21.712;2023-01-08T13:21:31;57.80;;;38.60;;
63926;SDS011;50103;47.960;21.712;2023-01-08T13:26:33;55.40;;;36.20;;
63926;SDS011;50103;47.960;21.712;2023-01-08T13:29:07;56.90;;;37.50;;
63926;SDS011;50103;47.960;21.712;2023-01-08T13:31:46;57.50;;;37.90;;
63926;SDS011;50103;47.960;21.712;2023-01-08T13:37:07;56.90;;;37.00;;
63926;SDS011;50103;47.960;21.712;2023-01-08T13:39:34;50.60;;;34.10;;
63926;SDS011;50103;47.960;21.712;2023-01-08T13:42:23;55.40;;;35.90;;
63926;SDS011;50103;47.960;21.712;2023-01-08T13:44:56;54.80;;;35.50;;
63926;SDS011;50103;47.960;21.712;2023-01-08T13:47:31;53.80;;;34.40;;
63926;SDS011;50103;47.960;21.712;2023-01-08T13:50:21;54.80;;;34.70;;
63926;SDS011;50103;47.960;21.712;2023-01-08T13:52:59;52.40;;;35.50;;
63926;SDS011;50103;47.960;21.712;2023-01-08T13:55:29;53.20;;;35.80;;
63926;SDS011;50103;47.960;21.712;2023-01-08T13:58:03;52.00;;;34.60;;
63926;SDS011;50103;47.960;21.712;2023-01-08T14:03:13;53.90;;;35.60;;
63926;SDS011;50103;47.960;21.712;2023-01-08T14:06:04;53.30;;;36.60;;
63926;SDS011;50103;47.960;21.712;2023-01-08T14:08:31;57.20;;;36.10;;
63926;SDS011;50103;47.960;21.712;2023-01-08T14:10:56;55.30;;;36.20;;
63926;SDS011;50103;47.960;21.712;2023-01-08T14:13:26;56.00;;;36.40;;
63926;SDS011;50103;47.960;21.712;2023-01-08T14:15:59;55.40;;;35.60;;
63926;SDS011;50103;47.960;21.712;2023-01-08T14:18:27;52.60;;;36.00;;
63926;SDS011;50103;47.960;21.712;2023-01-08T14:20:54;55.50;;;38.30;;
63926;SDS011;50103;47.960;21.712;2023-01-08T14:23:22;56.50;;;39.40;;
63926;SDS011;50103;47.960;21.712;2023-01-08T14:25:51;57.40;;;38.60;;
63926;SDS011;50103;47.960;21.712;2023-01-08T14:28:19;57.00;;;39.60;;
63926;SDS011;50103;47.960;21.712;2023-01-08T14:30:49;61.20;;;44.10;;
63926;SDS011;50103;47.960;21.712;2023-01-08T14:33:21;62.80;;;43.70;;
63926;SDS011;50103;47.960;21.712;2023-01-08T14:35:50;65.50;;;44.90;;
63926;SDS011;50103;47.960;21.712;2023-01-08T14:38:19;69.50;;;46.00;;
63926;SDS011;50103;47.960;21.712;2023-01-08T14:40:46;70.60;;;45.60;;
63926;SDS011;50103;47.960;21.712;2023-01-08T14:43:21;66.50;;;44.70;;
63926;SDS011;50103;47.960;21.712;2023-01-08T14:45:47;70.90;;;47.00;;
63926;SDS011;50103;47.960;21.712;2023-01-08T14:48:23;67.60;;;46.70;;
63926;SDS011;50103;47.960;21.712;2023-01-08T14:50:58;68.20;;;47.20;;
63926;SDS011;50103;47.960;21.712;2023-01-08T14:56:29;65.20;;;48.70;;
63926;SDS011;50103;47.960;21.712;2023-01-08T14:58:57;69.00;;;48.00;;
63926;SDS011;50103;47.960;21.712;2023-01-08T15:01:25;69.90;;;48.00;;
63926;SDS011;50103;47.960;21.712;2023-01-08T15:06:48;65.40;;;45.20;;
63926;SDS011;50103;47.960;21.712;2023-01-08T15:09:29;61.80;;;45.70;;
63926;SDS011;50103;47.960;21.712;2023-01-08T15:11:57;64.20;;;44.60;;
63926;SDS011;50103;47.960;21.712;2023-01-08T15:14:28;60.30;;;43.60;;
63926;SDS011;50103;47.960;21.712;2023-01-08T15:17:11;65.20;;;45.80;;
63926;SDS011;50103;47.960;21.712;2023-01-08T15:19:43;59.00;;;41.90;;
63926;SDS011;50103;47.960;21.712;2023-01-08T15:22:21;59.70;;;42.70;;
63926;SDS011;50103;47.960;21.712;2023-01-08T15:24:54;64.90;;;42.70;;
63926;SDS011;50103;47.960;21.712;2023-01-08T15:27:22;59.30;;;38.90;;
63926;SDS011;50103;47.960;21.712;2023-01-08T15:29:55;57.00;;;39.00;;
63926;SDS011;50103;47.960;21.712;2023-01-08T15:32:29;57.40;;;39.40;;
63926;SDS011;50103;47.960;21.712;2023-01-08T15:34:58;60.20;;;40.10;;
63926;SDS011;50103;47.960;21.712;2023-01-08T15:37:25;62.50;;;42.00;;
63926;SDS011;50103;47.960;21.712;2023-01-08T15:39:51;63.30;;;43.10;;
63926;SDS011;50103;47.960;21.712;2023-01-08T15:42:18;66.20;;;43.80;;
63926;SDS011;50103;47.960;21.712;2023-01-08T15:45:15;64.40;;;43.60;;
63926;SDS011;50103;47.960;21.712;2023-01-08T15:47:45;61.40;;;42.80;;
63926;SDS011;50103;47.960;21.712;2023-01-08T15:50:11;63.10;;;43.00;;
63926;SDS011;50103;47.960;21.712;2023-01-08T15:52:37;65.10;;;44.60;;
63926;SDS011;50103;47.960;21.712;2023-01-08T15:55:15;61.80;;;42.40;;
63926;SDS011;50103;47.960;21.712;2023-01-08T15:57:42;61.30;;;41.50;;
63926;SDS011;50103;47.960;21.712;2023-01-08T16:00:10;59.90;;;42.00;;
63926;SDS011;50103;47.960;21.712;2023-01-08T16:02:43;63.20;;;42.50;;
63926;SDS011;50103;47.960;21.712;2023-01-08T16:05:10;62.00;;;43.20;;
63926;SDS011;50103;47.960;21.712;2023-01-08T16:07:36;62.30;;;43.10;;
63926;SDS011;50103;47.960;21.712;2023-01-08T16:10:02;60.60;;;41.80;;
63926;SDS011;50103;47.960;21.712;2023-01-08T16:12:28;60.50;;;41.80;;
63926;SDS011;50103;47.960;21.712;2023-01-08T16:14:53;61.10;;;41.20;;
63926;SDS011;50103;47.960;21.712;2023-01-08T16:17:19;58.00;;;41.00;;
63926;SDS011;50103;47.960;21.712;2023-01-08T16:19:44;55.10;;;38.60;;
63926;SDS011;50103;47.960;21.712;2023-01-08T16:22:10;58.00;;;38.30;;
63926;SDS011;50103;47.960;21.712;2023-01-08T16:25:25;57.80;;;38.10;;
63926;SDS011;50103;47.960;21.712;2023-01-08T16:27:51;56.10;;;38.60;;
63926;SDS011;50103;47.960;21.712;2023-01-08T16:30:17;57.40;;;38.20;;
63926;SDS011;50103;47.960;21.712;2023-01-08T16:32:42;56.60;;;37.50;;
63926;SDS011;50103;47.960;21.712;2023-01-08T16:35:11;56.50;;;39.50;;
63926;SDS011;50103;47.960;21.712;2023-01-08T16:37:37;58.00;;;41.70;;
63926;SDS011;50103;47.960;21.712;2023-01-08T16:40:03;62.00;;;43.90;;
63926;SDS011;50103;47.960;21.712;2023-01-08T16:42:29;61.70;;;45.30;;
63926;SDS011;50103;47.960;21.712;2023-01-08T16:44:55;65.90;;;46.70;;
63926;SDS011;50103;47.960;21.712;2023-01-08T16:47:21;70.10;;;49.90;;
63926;SDS011;50103;47.960;21.712;2023-01-08T16:49:47;71.20;;;50.50;;
63926;SDS011;50103;47.960;21.712;2023-01-08T16:52:14;70.10;;;51.00;;
63926;SDS011;50103;47.960;21.712;2023-01-08T16:54:41;74.30;;;51.70;;
63926;SDS011;50103;47.960;21.712;2023-01-08T16:57:06;78.00;;;54.00;;
63926;SDS011;50103;47.960;21.712;2023-01-08T16:59:32;76.90;;;54.80;;
63926;SDS011;50103;47.960;21.712;2023-01-08T17:01:58;78.10;;;56.70;;
63926;SDS011;50103;47.960;21.712;2023-01-08T17:04:24;74.10;;;54.70;;
63926;SDS011;50103;47.960;21.712;2023-01-08T17:06:50;70.30;;;48.80;;
63926;SDS011;50103;47.960;21.712;2023-01-08T17:09:16;70.80;;;52.20;;
63926;SDS011;50103;47.960;21.712;2023-01-08T17:11:41;69.10;;;48.40;;
63926;SDS011;50103;47.960;21.712;2023-01-08T17:14:08;68.90;;;48.70;;
63926;SDS011;50103;47.960;21.712;2023-01-08T17:16:34;69.90;;;49.30;;
63926;SDS011;50103;47.960;21.712;2023-01-08T17:19:00;70.40;;;49.60;;
63926;SDS011;50103;47.960;21.712;2023-01-08T17:21:25;66.60;;;49.10;;
63926;SDS011;50103;47.960;21.712;2023-01-08T17:23:51;68.50;;;49.00;;
63926;SDS011;50103;47.960;21.712;2023-01-08T17:26:16;67.80;;;47.70;;
63926;SDS011;50103;47.960;21.712;2023-01-08T17:28:43;70.60;;;48.80;;
63926;SDS011;50103;47.960;21.712;2023-01-08T17:31:10;66.50;;;43.60;;
63926;SDS011;50103;47.960;21.712;2023-01-08T17:33:43;61.00;;;42.60;;
63926;SDS011;50103;47.960;21.712;2023-01-08T17:38:36;61.50;;;43.40;;
63926;SDS011;50103;47.960;21.712;2023-01-08T17:41:03;63.80;;;42.60;;
63926;SDS011;50103;47.960;21.712;2023-01-08T17:43:32;62.40;;;43.20;;
63926;SDS011;50103;47.960;21.712;2023-01-08T17:46:05;64.30;;;42.60;;
63926;SDS011;50103;47.960;21.712;2023-01-08T17:48:32;61.30;;;42.10;;
63926;SDS011;50103;47.960;21.712;2023-01-08T17:50:58;59.40;;;39.50;;
63926;SDS011;50103;47.960;21.712;2023-01-08T17:53:30;55.70;;;36.20;;
63926;SDS011;50103;47.960;21.712;2023-01-08T17:55:56;57.50;;;36.90;;
63926;SDS011;50103;47.960;21.712;2023-01-08T17:58:26;55.30;;;38.30;;
63926;SDS011;50103;47.960;21.712;2023-01-08T18:00:51;57.10;;;37.30;;
63926;SDS011;50103;47.960;21.712;2023-01-08T18:03:18;54.80;;;35.70;;
63926;SDS011;50103;47.960;21.712;2023-01-08T18:05:44;52.20;;;34.80;;
63926;SDS011;50103;47.960;21.712;2023-01-08T18:08:10;50.20;;;34.80;;
63926;SDS011;50103;47.960;21.712;2023-01-08T18:10:36;55.70;;;34.60;;
63926;SDS011;50103;47.960;21.712;2023-01-08T18:13:02;53.00;;;35.20;;
63926;SDS011;50103;47.960;21.712;2023-01-08T18:15:28;55.00;;;34.80;;
63926;SDS011;50103;47.960;21.712;2023-01-08T18:17:53;52.00;;;34.00;;
63926;SDS011;50103;47.960;21.712;2023-01-08T18:20:19;54.40;;;34.20;;
63926;SDS011;50103;47.960;21.712;2023-01-08T18:22:45;49.20;;;32.40;;
63926;SDS011;50103;47.960;21.712;2023-01-08T18:25:11;50.00;;;33.00;;
63926;SDS011;50103;47.960;21.712;2023-01-08T18:27:37;56.40;;;36.80;;
63926;SDS011;50103;47.960;21.712;2023-01-08T18:30:03;53.50;;;34.90;;
63926;SDS011;50103;47.960;21.712;2023-01-08T18:32:29;50.30;;;33.10;;
63926;SDS011;50103;47.960;21.712;2023-01-08T18:34:54;50.70;;;31.60;;
63926;SDS011;50103;47.960;21.712;2023-01-08T18:37:20;48.30;;;31.40;;
63926;SDS011;50103;47.960;21.712;2023-01-08T18:39:47;52.60;;;32.10;;
63926;SDS011;50103;47.960;21.712;2023-01-08T18:42:13;52.90;;;32.80;;
63926;SDS011;50103;47.960;21.712;2023-01-08T18:44:51;54.20;;;34.10;;
63926;SDS011;50103;47.960;21.712;2023-01-08T18:47:20;51.10;;;33.30;;
63926;SDS011;50103;47.960;21.712;2023-01-08T18:49:46;53.80;;;34.50;;
63926;SDS011;50103;47.960;21.712;2023-01-08T18:52:12;54.30;;;34.20;;
63926;SDS011;50103;47.960;21.712;2023-01-08T18:54:38;51.70;;;33.50;;
63926;SDS011;50103;47.960;21.712;2023-01-08T18:57:05;50.80;;;32.60;;
63926;SDS011;50103;47.960;21.712;2023-01-08T18:59:32;47.60;;;31.40;;
63926;SDS011;50103;47.960;21.712;2023-01-08T19:01:58;48.50;;;31.30;;
63926;SDS011;50103;47.960;21.712;2023-01-08T19:04:25;47.60;;;29.50;;
63926;SDS011;50103;47.960;21.712;2023-01-08T19:06:51;48.30;;;29.10;;
63926;SDS011;50103;47.960;21.712;2023-01-08T19:09:17;43.80;;;28.20;;
63926;SDS011;50103;47.960;21.712;2023-01-08T19:11:43;44.30;;;26.40;;
63926;SDS011;50103;47.960;21.712;2023-01-08T19:14:09;40.50;;;24.90;;
63926;SDS011;50103;47.960;21.712;2023-01-08T19:16:36;42.40;;;24.70;;
63926;SDS011;50103;47.960;21.712;2023-01-08T19:19:01;44.50;;;24.80;;
63926;SDS011;50103;47.960;21.712;2023-01-08T19:21:27;40.30;;;24.10;;
63926;SDS011;50103;47.960;21.712;2023-01-08T19:23:54;43.90;;;24.20;;
63926;SDS011;50103;47.960;21.712;2023-01-08T19:26:21;43.60;;;24.00;;
63926;SDS011;50103;47.960;21.712;2023-01-08T19:28:47;38.40;;;23.60;;
63926;SDS011;50103;47.960;21.712;2023-01-08T19:31:13;40.30;;;23.30;;
63926;SDS011;50103;47.960;21.712;2023-01-08T19:33:41;39.10;;;22.30;;
63926;SDS011;50103;47.960;21.712;2023-01-08T19:36:07;37.30;;;21.80;;
63926;SDS011;50103;47.960;21.712;2023-01-08T19:41:06;37.30;;;21.90;;
63926;SDS011;50103;47.960;21.712;2023-01-08T19:43:52;39.30;;;21.70;;
63926;SDS011;50103;47.960;21.712;2023-01-08T19:46:19;38.30;;;22.30;;
63926;SDS011;50103;47.960;21.712;2023-01-08T19:48:45;38.50;;;21.50;;
63926;SDS011;50103;47.960;21.712;2023-01-08T19:51:11;39.70;;;21.20;;
63926;SDS011;50103;47.960;21.712;2023-01-08T19:53:37;40.20;;;21.90;;
63926;SDS011;50103;47.960;21.712;2023-01-08T19:56:07;36.00;;;21.30;;
63926;SDS011;50103;47.960;21.712;2023-01-08T19:58:35;36.30;;;20.00;;
63926;SDS011;50103;47.960;21.712;2023-01-08T20:01:06;34.40;;;19.10;;
